sensor_id;sensor_type;location;lat;lon;timestamp;P1;durP1;ratioP1;P2;durP2;ratioP2
21665;SDS011;10994;45.486;9.190;2023-03-21T00:00:30;42.17;;;30.90;;
21665;SDS011;10994;45.486;9.190;2023-03-21T00:02:56;45.27;;;32.67;;
21665;SDS011;10994;45.486;9.190;2023-03-21T00:05:22;50.60;;;32.57;;
21665;SDS011;10994;45.486;9.190;2023-03-21T00:07:48;44.87;;;30.73;;
21665;SDS011;10994;45.486;9.190;2023-03-21T00:10:14;42.77;;;30.77;;
21665;SDS011;10994;45.486;9.190;2023-03-21T00:12:40;43.63;;;31.40;;
21665;SDS011;10994;45.486;9.190;2023-03-21T00:15:07;42.57;;;32.63;;
21665;SDS011;10994;45.486;9.190;2023-03-21T00:17:34;45.97;;;33.47;;
21665;SDS011;10994;45.486;9.190;2023-03-21T00:20:04;43.23;;;32.40;;
21665;SDS011;10994;45.486;9.190;2023-03-21T00:22:30;44.97;;;32.97;;
21665;SDS011;10994;45.486;9.190;2023-03-21T00:24:56;48.73;;;34.03;;
21665;SDS011;10994;45.486;9.190;2023-03-21T00:27:22;47.87;;;33.67;;
21665;SDS011;10994;45.486;9.190;2023-03-21T00:29:49;47.07;;;34.67;;
21665;SDS011;10994;45.486;9.190;2023-03-21T00:32:17;44.93;;;33.70;;
21665;SDS011;10994;45.486;9.190;2023-03-21T00:34:46;44.77;;;34.77;;
21665;SDS011;10994;45.486;9.190;2023-03-21T00:37:14;38.73;;;32.67;;
21665;SDS011;10994;45.486;9.190;2023-03-21T00:39:43;51.50;;;34.50;;
21665;SDS011;10994;45.486;9.190;2023-03-21T00:42:12;42.93;;;34.13;;
21665;SDS011;10994;45.486;9.190;2023-03-21T00:44:38;42.77;;;33.67;;
21665;SDS011;10994;45.486;9.190;2023-03-21T00:47:05;44.83;;;34.97;;
21665;SDS011;10994;45.486;9.190;2023-03-21T00:49:32;49.30;;;33.07;;
21665;SDS011;10994;45.486;9.190;2023-03-21T00:52:01;47.20;;;34.17;;
21665;SDS011;10994;45.486;9.190;2023-03-21T00:54:29;45.90;;;34.43;;
21665;SDS011;10994;45.486;9.190;2023-03-21T00:56:55;52.63;;;33.30;;
21665;SDS011;10994;45.486;9.190;2023-03-21T00:59:22;49.90;;;34.67;;
21665;SDS011;10994;45.486;9.190;2023-03-21T01:01:48;50.17;;;34.53;;
21665;SDS011;10994;45.486;9.190;2023-03-21T01:04:14;40.27;;;33.57;;
21665;SDS011;10994;45.486;9.190;2023-03-21T01:06:41;44.10;;;33.87;;
21665;SDS011;10994;45.486;9.190;2023-03-21T01:09:12;50.90;;;35.80;;
21665;SDS011;10994;45.486;9.190;2023-03-21T01:11:39;43.07;;;35.17;;
21665;SDS011;10994;45.486;9.190;2023-03-21T01:14:06;45.63;;;34.27;;
21665;SDS011;10994;45.486;9.190;2023-03-21T01:16:32;47.50;;;34.63;;
21665;SDS011;10994;45.486;9.190;2023-03-21T01:18:59;47.50;;;35.23;;
21665;SDS011;10994;45.486;9.190;2023-03-21T01:21:25;48.30;;;35.00;;
21665;SDS011;10994;45.486;9.190;2023-03-21T01:23:51;53.77;;;36.40;;
21665;SDS011;10994;45.486;9.190;2023-03-21T01:26:17;62.03;;;35.53;;
21665;SDS011;10994;45.486;9.190;2023-03-21T01:28:43;61.87;;;36.03;;
21665;SDS011;10994;45.486;9.190;2023-03-21T01:31:11;60.40;;;35.43;;
21665;SDS011;10994;45.486;9.190;2023-03-21T01:33:37;47.17;;;34.90;;
21665;SDS011;10994;45.486;9.190;2023-03-21T01:36:03;46.67;;;33.97;;
21665;SDS011;10994;45.486;9.190;2023-03-21T01:38:30;44.70;;;33.60;;
21665;SDS011;10994;45.486;9.190;2023-03-21T01:40:58;51.60;;;34.60;;
21665;SDS011;10994;45.486;9.190;2023-03-21T01:43:29;46.13;;;33.60;;
21665;SDS011;10994;45.486;9.190;2023-03-21T01:51:40;45.27;;;34.33;;
21665;SDS011;10994;45.486;9.190;2023-03-21T01:54:08;45.23;;;34.43;;
21665;SDS011;10994;45.486;9.190;2023-03-21T01:56:36;48.47;;;34.90;;
21665;SDS011;10994;45.486;9.190;2023-03-21T01:59:12;50.23;;;35.90;;
21665;SDS011;10994;45.486;9.190;2023-03-21T02:02:02;44.40;;;34.30;;
21665;SDS011;10994;45.486;9.190;2023-03-21T02:04:36;45.23;;;36.87;;
21665;SDS011;10994;45.486;9.190;2023-03-21T02:07:15;54.87;;;36.73;;
21665;SDS011;10994;45.486;9.190;2023-03-21T02:09:49;56.07;;;38.37;;
21665;SDS011;10994;45.486;9.190;2023-03-21T02:12:19;52.33;;;36.50;;
21665;SDS011;10994;45.486;9.190;2023-03-21T02:14:47;48.60;;;36.80;;
21665;SDS011;10994;45.486;9.190;2023-03-21T02:17:49;52.40;;;36.73;;
21665;SDS011;10994;45.486;9.190;2023-03-21T02:23:19;63.57;;;37.93;;
21665;SDS011;10994;45.486;9.190;2023-03-21T02:28:29;55.93;;;38.97;;
21665;SDS011;10994;45.486;9.190;2023-03-21T02:36:07;59.20;;;38.10;;
21665;SDS011;10994;45.486;9.190;2023-03-21T02:38:37;62.07;;;40.03;;
21665;SDS011;10994;45.486;9.190;2023-03-21T02:41:10;56.00;;;39.37;;
21665;SDS011;10994;45.486;9.190;2023-03-21T02:48:45;57.47;;;39.50;;
21665;SDS011;10994;45.486;9.190;2023-03-21T02:51:14;54.83;;;38.93;;
21665;SDS011;10994;45.486;9.190;2023-03-21T02:53:41;55.93;;;40.87;;
21665;SDS011;10994;45.486;9.190;2023-03-21T02:56:09;52.47;;;39.03;;
21665;SDS011;10994;45.486;9.190;2023-03-21T02:58:39;53.47;;;38.57;;
21665;SDS011;10994;45.486;9.190;2023-03-21T03:01:07;49.77;;;36.63;;
21665;SDS011;10994;45.486;9.190;2023-03-21T03:03:39;48.13;;;37.20;;
21665;SDS011;10994;45.486;9.190;2023-03-21T03:06:17;53.93;;;38.20;;
21665;SDS011;10994;45.486;9.190;2023-03-21T03:08:48;49.17;;;37.27;;
21665;SDS011;10994;45.486;9.190;2023-03-21T03:11:25;49.60;;;37.13;;
21665;SDS011;10994;45.486;9.190;2023-03-21T03:14:16;49.13;;;36.70;;
21665;SDS011;10994;45.486;9.190;2023-03-21T03:19:45;51.17;;;38.03;;
21665;SDS011;10994;45.486;9.190;2023-03-21T03:22:17;52.07;;;38.93;;
21665;SDS011;10994;45.486;9.190;2023-03-21T03:24:52;46.90;;;37.10;;
21665;SDS011;10994;45.486;9.190;2023-03-21T03:27:24;52.43;;;37.50;;
21665;SDS011;10994;45.486;9.190;2023-03-21T03:29:54;52.10;;;37.73;;
21665;SDS011;10994;45.486;9.190;2023-03-21T03:32:30;56.20;;;38.97;;
21665;SDS011;10994;45.486;9.190;2023-03-21T03:34:59;50.60;;;37.63;;
21665;SDS011;10994;45.486;9.190;2023-03-21T03:37:30;50.97;;;39.07;;
21665;SDS011;10994;45.486;9.190;2023-03-21T03:42:26;54.37;;;39.97;;
21665;SDS011;10994;45.486;9.190;2023-03-21T03:44:59;49.80;;;38.60;;
21665;SDS011;10994;45.486;9.190;2023-03-21T03:47:28;54.43;;;40.37;;
21665;SDS011;10994;45.486;9.190;2023-03-21T03:50:19;53.00;;;40.53;;
21665;SDS011;10994;45.486;9.190;2023-03-21T03:52:43;58.93;;;38.77;;
21665;SDS011;10994;45.486;9.190;2023-03-21T03:55:11;48.53;;;37.73;;
21665;SDS011;10994;45.486;9.190;2023-03-21T03:57:43;50.60;;;39.00;;
21665;SDS011;10994;45.486;9.190;2023-03-21T04:00:10;54.43;;;40.17;;
21665;SDS011;10994;45.486;9.190;2023-03-21T04:02:43;52.30;;;39.37;;
21665;SDS011;10994;45.486;9.190;2023-03-21T04:05:12;56.33;;;41.30;;
21665;SDS011;10994;45.486;9.190;2023-03-21T04:07:39;54.93;;;40.13;;
21665;SDS011;10994;45.486;9.190;2023-03-21T04:10:05;49.43;;;38.63;;
21665;SDS011;10994;45.486;9.190;2023-03-21T04:12:38;55.70;;;40.90;;
21665;SDS011;10994;45.486;9.190;2023-03-21T04:15:24;54.13;;;39.37;;
21665;SDS011;10994;45.486;9.190;2023-03-21T04:17:57;52.13;;;38.27;;
21665;SDS011;10994;45.486;9.190;2023-03-21T04:20:23;52.80;;;39.00;;
21665;SDS011;10994;45.486;9.190;2023-03-21T04:22:49;56.03;;;39.40;;
21665;SDS011;10994;45.486;9.190;2023-03-21T04:25:16;52.17;;;39.03;;
21665;SDS011;10994;45.486;9.190;2023-03-21T04:27:42;54.07;;;38.37;;
21665;SDS011;10994;45.486;9.190;2023-03-21T04:30:37;52.80;;;38.83;;
21665;SDS011;10994;45.486;9.190;2023-03-21T04:33:12;51.70;;;39.10;;
21665;SDS011;10994;45.486;9.190;2023-03-21T04:35:43;53.97;;;38.33;;
21665;SDS011;10994;45.486;9.190;2023-03-21T04:38:12;55.07;;;38.90;;
21665;SDS011;10994;45.486;9.190;2023-03-21T04:40:38;49.17;;;38.20;;
21665;SDS011;10994;45.486;9.190;2023-03-21T04:43:07;51.87;;;38.73;;
21665;SDS011;10994;45.486;9.190;2023-03-21T04:45:36;49.27;;;37.67;;
21665;SDS011;10994;45.486;9.190;2023-03-21T04:48:02;51.47;;;39.20;;
21665;SDS011;10994;45.486;9.190;2023-03-21T04:50:29;51.10;;;37.80;;
21665;SDS011;10994;45.486;9.190;2023-03-21T04:52:58;53.43;;;39.93;;
21665;SDS011;10994;45.486;9.190;2023-03-21T04:55:25;55.60;;;39.63;;
21665;SDS011;10994;45.486;9.190;2023-03-21T04:57:53;52.80;;;39.43;;
21665;SDS011;10994;45.486;9.190;2023-03-21T05:00:20;50.90;;;39.03;;
21665;SDS011;10994;45.486;9.190;2023-03-21T05:02:47;59.20;;;41.53;;
21665;SDS011;10994;45.486;9.190;2023-03-21T05:05:13;57.60;;;41.00;;
21665;SDS011;10994;45.486;9.190;2023-03-21T05:07:40;53.17;;;39.03;;
21665;SDS011;10994;45.486;9.190;2023-03-21T05:10:06;51.37;;;39.13;;
21665;SDS011;10994;45.486;9.190;2023-03-21T05:12:33;53.10;;;39.63;;
21665;SDS011;10994;45.486;9.190;2023-03-21T05:14:59;52.43;;;39.80;;
21665;SDS011;10994;45.486;9.190;2023-03-21T05:17:25;57.83;;;40.93;;
21665;SDS011;10994;45.486;9.190;2023-03-21T05:19:52;57.30;;;41.97;;
21665;SDS011;10994;45.486;9.190;2023-03-21T05:22:21;61.40;;;42.00;;
21665;SDS011;10994;45.486;9.190;2023-03-21T05:24:49;56.77;;;41.70;;
21665;SDS011;10994;45.486;9.190;2023-03-21T05:27:29;54.57;;;40.53;;
21665;SDS011;10994;45.486;9.190;2023-03-21T05:30:03;56.17;;;39.60;;
21665;SDS011;10994;45.486;9.190;2023-03-21T05:32:32;61.23;;;42.40;;
21665;SDS011;10994;45.486;9.190;2023-03-21T05:34:59;56.03;;;40.63;;
21665;SDS011;10994;45.486;9.190;2023-03-21T05:37:26;61.37;;;44.87;;
21665;SDS011;10994;45.486;9.190;2023-03-21T05:39:52;57.03;;;39.73;;
21665;SDS011;10994;45.486;9.190;2023-03-21T05:42:25;61.70;;;40.43;;
21665;SDS011;10994;45.486;9.190;2023-03-21T05:44:52;56.37;;;40.57;;
21665;SDS011;10994;45.486;9.190;2023-03-21T05:47:24;51.73;;;39.60;;
21665;SDS011;10994;45.486;9.190;2023-03-21T05:49:52;56.53;;;41.50;;
21665;SDS011;10994;45.486;9.190;2023-03-21T05:52:19;66.00;;;44.53;;
21665;SDS011;10994;45.486;9.190;2023-03-21T05:54:46;54.23;;;42.13;;
21665;SDS011;10994;45.486;9.190;2023-03-21T05:57:12;60.57;;;43.47;;
21665;SDS011;10994;45.486;9.190;2023-03-21T05:59:54;62.67;;;44.23;;
21665;SDS011;10994;45.486;9.190;2023-03-21T06:02:20;55.27;;;39.53;;
21665;SDS011;10994;45.486;9.190;2023-03-21T06:04:47;57.80;;;41.13;;
21665;SDS011;10994;45.486;9.190;2023-03-21T06:07:13;57.00;;;42.50;;
21665;SDS011;10994;45.486;9.190;2023-03-21T06:09:40;62.33;;;44.13;;
21665;SDS011;10994;45.486;9.190;2023-03-21T06:12:06;59.80;;;42.57;;
21665;SDS011;10994;45.486;9.190;2023-03-21T06:14:54;55.87;;;41.70;;
21665;SDS011;10994;45.486;9.190;2023-03-21T06:17:27;59.10;;;42.20;;
21665;SDS011;10994;45.486;9.190;2023-03-21T06:20:01;56.37;;;40.83;;
21665;SDS011;10994;45.486;9.190;2023-03-21T06:22:32;63.13;;;42.53;;
21665;SDS011;10994;45.486;9.190;2023-03-21T06:25:00;54.53;;;40.80;;
21665;SDS011;10994;45.486;9.190;2023-03-21T06:27:26;57.30;;;41.30;;
21665;SDS011;10994;45.486;9.190;2023-03-21T06:29:54;60.07;;;40.20;;
21665;SDS011;10994;45.486;9.190;2023-03-21T06:32:22;55.23;;;40.27;;
21665;SDS011;10994;45.486;9.190;2023-03-21T06:34:53;53.97;;;41.40;;
21665;SDS011;10994;45.486;9.190;2023-03-21T06:37:20;53.90;;;40.43;;
21665;SDS011;10994;45.486;9.190;2023-03-21T06:39:46;56.60;;;40.67;;
21665;SDS011;10994;45.486;9.190;2023-03-21T06:42:13;57.10;;;41.67;;
21665;SDS011;10994;45.486;9.190;2023-03-21T06:44:39;57.17;;;41.50;;
21665;SDS011;10994;45.486;9.190;2023-03-21T06:47:10;51.03;;;39.83;;
21665;SDS011;10994;45.486;9.190;2023-03-21T06:49:37;79.90;;;56.17;;
21665;SDS011;10994;45.486;9.190;2023-03-21T06:52:08;53.87;;;41.13;;
21665;SDS011;10994;45.486;9.190;2023-03-21T06:54:35;57.83;;;41.50;;
21665;SDS011;10994;45.486;9.190;2023-03-21T06:57:14;53.97;;;39.67;;
21665;SDS011;10994;45.486;9.190;2023-03-21T06:59:40;54.27;;;40.70;;
21665;SDS011;10994;45.486;9.190;2023-03-21T07:02:09;50.83;;;39.50;;
21665;SDS011;10994;45.486;9.190;2023-03-21T07:04:40;52.30;;;39.70;;
21665;SDS011;10994;45.486;9.190;2023-03-21T07:07:12;61.50;;;42.70;;
21665;SDS011;10994;45.486;9.190;2023-03-21T07:09:40;57.10;;;41.70;;
21665;SDS011;10994;45.486;9.190;2023-03-21T07:12:07;52.57;;;40.20;;
21665;SDS011;10994;45.486;9.190;2023-03-21T07:14:53;53.20;;;39.77;;
21665;SDS011;10994;45.486;9.190;2023-03-21T07:17:19;57.80;;;40.30;;
21665;SDS011;10994;45.486;9.190;2023-03-21T07:19:45;54.77;;;40.37;;
21665;SDS011;10994;45.486;9.190;2023-03-21T07:22:12;58.37;;;40.90;;
21665;SDS011;10994;45.486;9.190;2023-03-21T07:24:38;54.60;;;41.60;;
21665;SDS011;10994;45.486;9.190;2023-03-21T07:27:04;55.67;;;41.80;;
21665;SDS011;10994;45.486;9.190;2023-03-21T07:29:30;50.03;;;40.60;;
21665;SDS011;10994;45.486;9.190;2023-03-21T07:31:56;58.47;;;41.93;;
21665;SDS011;10994;45.486;9.190;2023-03-21T07:34:22;52.57;;;41.27;;
21665;SDS011;10994;45.486;9.190;2023-03-21T07:36:49;56.70;;;40.97;;
21665;SDS011;10994;45.486;9.190;2023-03-21T07:39:15;51.13;;;40.03;;
21665;SDS011;10994;45.486;9.190;2023-03-21T07:41:41;53.70;;;41.53;;
21665;SDS011;10994;45.486;9.190;2023-03-21T07:44:20;56.37;;;42.73;;
21665;SDS011;10994;45.486;9.190;2023-03-21T07:46:46;54.27;;;40.50;;
21665;SDS011;10994;45.486;9.190;2023-03-21T07:49:12;56.73;;;42.23;;
21665;SDS011;10994;45.486;9.190;2023-03-21T07:51:38;57.23;;;42.57;;
21665;SDS011;10994;45.486;9.190;2023-03-21T07:54:04;58.77;;;44.83;;
21665;SDS011;10994;45.486;9.190;2023-03-21T07:56:31;56.77;;;41.17;;
21665;SDS011;10994;45.486;9.190;2023-03-21T07:58:57;56.23;;;44.23;;
21665;SDS011;10994;45.486;9.190;2023-03-21T08:01:24;64.07;;;42.57;;
21665;SDS011;10994;45.486;9.190;2023-03-21T08:03:50;54.80;;;42.07;;
21665;SDS011;10994;45.486;9.190;2023-03-21T08:06:20;61.33;;;42.63;;
21665;SDS011;10994;45.486;9.190;2023-03-21T08:08:46;62.73;;;44.77;;
21665;SDS011;10994;45.486;9.190;2023-03-21T08:11:15;61.77;;;45.00;;
21665;SDS011;10994;45.486;9.190;2023-03-21T08:13:42;58.67;;;42.77;;
21665;SDS011;10994;45.486;9.190;2023-03-21T08:16:08;60.90;;;44.07;;
21665;SDS011;10994;45.486;9.190;2023-03-21T08:18:34;61.33;;;44.33;;
21665;SDS011;10994;45.486;9.190;2023-03-21T08:21:00;56.33;;;43.10;;
21665;SDS011;10994;45.486;9.190;2023-03-21T08:23:26;62.37;;;44.83;;
21665;SDS011;10994;45.486;9.190;2023-03-21T08:25:54;57.23;;;43.37;;
21665;SDS011;10994;45.486;9.190;2023-03-21T08:28:20;60.97;;;44.13;;
21665;SDS011;10994;45.486;9.190;2023-03-21T08:30:47;65.47;;;44.43;;
21665;SDS011;10994;45.486;9.190;2023-03-21T08:33:14;59.80;;;45.30;;
21665;SDS011;10994;45.486;9.190;2023-03-21T08:35:41;69.20;;;46.07;;
21665;SDS011;10994;45.486;9.190;2023-03-21T08:38:08;60.37;;;45.33;;
21665;SDS011;10994;45.486;9.190;2023-03-21T08:40:34;65.13;;;46.07;;
21665;SDS011;10994;45.486;9.190;2023-03-21T08:43:00;57.83;;;43.87;;
21665;SDS011;10994;45.486;9.190;2023-03-21T08:45:26;60.60;;;44.47;;
21665;SDS011;10994;45.486;9.190;2023-03-21T08:47:52;67.63;;;45.00;;
21665;SDS011;10994;45.486;9.190;2023-03-21T08:50:21;63.23;;;41.77;;
21665;SDS011;10994;45.486;9.190;2023-03-21T08:52:48;58.57;;;43.50;;
21665;SDS011;10994;45.486;9.190;2023-03-21T08:55:14;55.57;;;44.10;;
21665;SDS011;10994;45.486;9.190;2023-03-21T08:57:41;59.90;;;44.23;;
21665;SDS011;10994;45.486;9.190;2023-03-21T09:00:08;65.73;;;46.07;;
21665;SDS011;10994;45.486;9.190;2023-03-21T09:02:41;63.60;;;43.57;;
21665;SDS011;10994;45.486;9.190;2023-03-21T09:05:08;65.27;;;46.37;;
21665;SDS011;10994;45.486;9.190;2023-03-21T09:07:36;60.53;;;46.20;;
21665;SDS011;10994;45.486;9.190;2023-03-21T09:10:04;58.63;;;43.93;;
21665;SDS011;10994;45.486;9.190;2023-03-21T09:12:31;62.77;;;45.57;;
21665;SDS011;10994;45.486;9.190;2023-03-21T09:14:57;61.47;;;44.37;;
21665;SDS011;10994;45.486;9.190;2023-03-21T09:17:23;62.40;;;44.13;;
21665;SDS011;10994;45.486;9.190;2023-03-21T09:19:49;63.50;;;46.20;;
21665;SDS011;10994;45.486;9.190;2023-03-21T09:22:17;58.70;;;45.77;;
21665;SDS011;10994;45.486;9.190;2023-03-21T09:24:47;57.33;;;43.90;;
21665;SDS011;10994;45.486;9.190;2023-03-21T09:27:17;65.07;;;45.80;;
21665;SDS011;10994;45.486;9.190;2023-03-21T09:29:50;61.20;;;44.37;;
21665;SDS011;10994;45.486;9.190;2023-03-21T09:32:16;58.57;;;44.67;;
21665;SDS011;10994;45.486;9.190;2023-03-21T09:34:43;58.23;;;45.00;;
21665;SDS011;10994;45.486;9.190;2023-03-21T09:37:10;57.00;;;44.23;;
21665;SDS011;10994;45.486;9.190;2023-03-21T09:39:40;59.30;;;43.47;;
21665;SDS011;10994;45.486;9.190;2023-03-21T09:45:06;57.23;;;42.90;;
21665;SDS011;10994;45.486;9.190;2023-03-21T09:47:43;55.70;;;42.63;;
21665;SDS011;10994;45.486;9.190;2023-03-21T09:50:18;57.53;;;43.43;;
21665;SDS011;10994;45.486;9.190;2023-03-21T09:52:49;58.90;;;44.37;;
21665;SDS011;10994;45.486;9.190;2023-03-21T09:55:17;55.70;;;42.40;;
21665;SDS011;10994;45.486;9.190;2023-03-21T09:57:44;53.63;;;42.00;;
21665;SDS011;10994;45.486;9.190;2023-03-21T10:00:24;55.27;;;44.67;;
21665;SDS011;10994;45.486;9.190;2023-03-21T10:02:54;58.03;;;42.23;;
21665;SDS011;10994;45.486;9.190;2023-03-21T10:05:28;57.23;;;42.93;;
21665;SDS011;10994;45.486;9.190;2023-03-21T10:08:28;61.13;;;42.70;;
21665;SDS011;10994;45.486;9.190;2023-03-21T10:10:51;57.27;;;42.30;;
21665;SDS011;10994;45.486;9.190;2023-03-21T10:13:25;54.53;;;41.20;;
21665;SDS011;10994;45.486;9.190;2023-03-21T10:16:15;55.07;;;38.70;;
21665;SDS011;10994;45.486;9.190;2023-03-21T10:18:41;48.97;;;39.03;;
21665;SDS011;10994;45.486;9.190;2023-03-21T10:21:10;46.43;;;35.50;;
21665;SDS011;10994;45.486;9.190;2023-03-21T10:23:38;44.13;;;35.77;;
21665;SDS011;10994;45.486;9.190;2023-03-21T10:26:04;46.37;;;34.33;;
21665;SDS011;10994;45.486;9.190;2023-03-21T10:28:34;43.43;;;34.47;;
21665;SDS011;10994;45.486;9.190;2023-03-21T10:31:02;48.63;;;34.90;;
21665;SDS011;10994;45.486;9.190;2023-03-21T10:33:33;44.47;;;34.80;;
21665;SDS011;10994;45.486;9.190;2023-03-21T10:36:04;46.90;;;35.47;;
21665;SDS011;10994;45.486;9.190;2023-03-21T10:38:33;42.77;;;32.57;;
21665;SDS011;10994;45.486;9.190;2023-03-21T10:41:02;42.80;;;32.40;;
21665;SDS011;10994;45.486;9.190;2023-03-21T10:45:58;37.90;;;31.20;;
21665;SDS011;10994;45.486;9.190;2023-03-21T10:48:51;31.87;;;27.30;;
21665;SDS011;10994;45.486;9.190;2023-03-21T10:51:21;32.37;;;26.20;;
21665;SDS011;10994;45.486;9.190;2023-03-21T10:53:53;29.63;;;23.80;;
21665;SDS011;10994;45.486;9.190;2023-03-21T10:56:22;29.00;;;22.30;;
21665;SDS011;10994;45.486;9.190;2023-03-21T10:58:52;33.27;;;26.63;;
21665;SDS011;10994;45.486;9.190;2023-03-21T11:01:44;37.30;;;30.17;;
21665;SDS011;10994;45.486;9.190;2023-03-21T11:04:12;39.50;;;30.30;;
21665;SDS011;10994;45.486;9.190;2023-03-21T11:06:40;33.17;;;27.10;;
21665;SDS011;10994;45.486;9.190;2023-03-21T11:09:08;37.13;;;28.10;;
21665;SDS011;10994;45.486;9.190;2023-03-21T11:11:40;36.83;;;29.47;;
21665;SDS011;10994;45.486;9.190;2023-03-21T11:14:07;31.47;;;26.87;;
21665;SDS011;10994;45.486;9.190;2023-03-21T11:16:44;32.10;;;26.37;;
21665;SDS011;10994;45.486;9.190;2023-03-21T11:19:15;32.20;;;25.13;;
21665;SDS011;10994;45.486;9.190;2023-03-21T11:21:41;33.13;;;25.17;;
21665;SDS011;10994;45.486;9.190;2023-03-21T11:24:11;32.03;;;25.57;;
21665;SDS011;10994;45.486;9.190;2023-03-21T11:26:39;31.43;;;25.13;;
21665;SDS011;10994;45.486;9.190;2023-03-21T11:29:15;35.23;;;26.10;;
21665;SDS011;10994;45.486;9.190;2023-03-21T11:31:42;36.93;;;26.53;;
21665;SDS011;10994;45.486;9.190;2023-03-21T11:34:08;31.33;;;24.73;;
21665;SDS011;10994;45.486;9.190;2023-03-21T11:36:47;29.07;;;23.57;;
21665;SDS011;10994;45.486;9.190;2023-03-21T11:39:32;32.47;;;24.17;;
21665;SDS011;10994;45.486;9.190;2023-03-21T11:42:01;29.97;;;24.90;;
21665;SDS011;10994;45.486;9.190;2023-03-21T11:44:28;28.70;;;22.07;;
21665;SDS011;10994;45.486;9.190;2023-03-21T11:46:54;25.67;;;22.07;;
21665;SDS011;10994;45.486;9.190;2023-03-21T11:49:21;28.63;;;23.37;;
21665;SDS011;10994;45.486;9.190;2023-03-21T11:51:53;27.23;;;21.43;;
21665;SDS011;10994;45.486;9.190;2023-03-21T11:57:06;28.50;;;21.27;;
21665;SDS011;10994;45.486;9.190;2023-03-21T11:59:40;33.87;;;24.27;;
21665;SDS011;10994;45.486;9.190;2023-03-21T12:05:05;34.87;;;25.83;;
21665;SDS011;10994;45.486;9.190;2023-03-21T12:07:33;35.67;;;23.03;;
21665;SDS011;10994;45.486;9.190;2023-03-21T12:10:25;27.97;;;21.80;;
21665;SDS011;10994;45.486;9.190;2023-03-21T12:12:59;27.50;;;22.23;;
21665;SDS011;10994;45.486;9.190;2023-03-21T12:23:15;26.53;;;20.20;;
21665;SDS011;10994;45.486;9.190;2023-03-21T12:25:45;22.53;;;20.07;;
21665;SDS011;10994;45.486;9.190;2023-03-21T12:31:05;25.33;;;19.03;;
21665;SDS011;10994;45.486;9.190;2023-03-21T12:33:41;27.53;;;19.90;;
21665;SDS011;10994;45.486;9.190;2023-03-21T12:41:24;22.53;;;19.33;;
21665;SDS011;10994;45.486;9.190;2023-03-21T12:46:34;21.63;;;18.73;;
21665;SDS011;10994;45.486;9.190;2023-03-21T12:49:05;20.43;;;18.23;;
21665;SDS011;10994;45.486;9.190;2023-03-21T12:51:33;27.17;;;19.80;;
21665;SDS011;10994;45.486;9.190;2023-03-21T12:54:06;20.90;;;17.20;;
21665;SDS011;10994;45.486;9.190;2023-03-21T12:56:35;24.63;;;19.33;;
21665;SDS011;10994;45.486;9.190;2023-03-21T13:01:35;24.70;;;19.47;;
21665;SDS011;10994;45.486;9.190;2023-03-21T13:04:24;23.57;;;19.40;;
21665;SDS011;10994;45.486;9.190;2023-03-21T13:06:52;30.40;;;19.43;;
21665;SDS011;10994;45.486;9.190;2023-03-21T13:09:23;28.03;;;18.97;;
21665;SDS011;10994;45.486;9.190;2023-03-21T13:11:53;19.67;;;16.77;;
21665;SDS011;10994;45.486;9.190;2023-03-21T13:14:24;19.97;;;17.87;;
21665;SDS011;10994;45.486;9.190;2023-03-21T13:16:54;22.83;;;18.23;;
21665;SDS011;10994;45.486;9.190;2023-03-21T13:19:38;24.60;;;19.27;;
21665;SDS011;10994;45.486;9.190;2023-03-21T13:22:10;23.50;;;19.47;;
21665;SDS011;10994;45.486;9.190;2023-03-21T13:24:56;23.53;;;18.57;;
21665;SDS011;10994;45.486;9.190;2023-03-21T13:29:50;23.37;;;19.40;;
21665;SDS011;10994;45.486;9.190;2023-03-21T13:32:25;24.70;;;19.33;;
21665;SDS011;10994;45.486;9.190;2023-03-21T13:34:54;24.37;;;19.83;;
21665;SDS011;10994;45.486;9.190;2023-03-21T13:37:20;23.60;;;19.50;;
21665;SDS011;10994;45.486;9.190;2023-03-21T13:39:47;21.97;;;17.93;;
21665;SDS011;10994;45.486;9.190;2023-03-21T13:42:21;24.53;;;18.67;;
21665;SDS011;10994;45.486;9.190;2023-03-21T13:44:49;22.87;;;19.03;;
21665;SDS011;10994;45.486;9.190;2023-03-21T13:55:29;21.37;;;17.10;;
21665;SDS011;10994;45.486;9.190;2023-03-21T13:57:56;22.83;;;18.57;;
21665;SDS011;10994;45.486;9.190;2023-03-21T14:00:28;20.10;;;18.00;;
21665;SDS011;10994;45.486;9.190;2023-03-21T14:02:58;20.40;;;16.70;;
21665;SDS011;10994;45.486;9.190;2023-03-21T14:05:25;22.33;;;17.30;;
21665;SDS011;10994;45.486;9.190;2023-03-21T14:07:56;20.87;;;16.67;;
21665;SDS011;10994;45.486;9.190;2023-03-21T14:10:44;20.13;;;16.57;;
21665;SDS011;10994;45.486;9.190;2023-03-21T14:13:10;20.27;;;16.17;;
21665;SDS011;10994;45.486;9.190;2023-03-21T14:15:43;18.77;;;16.53;;
21665;SDS011;10994;45.486;9.190;2023-03-21T14:18:14;23.27;;;16.40;;
21665;SDS011;10994;45.486;9.190;2023-03-21T14:20:40;17.80;;;15.90;;
21665;SDS011;10994;45.486;9.190;2023-03-21T14:23:09;19.23;;;16.27;;
21665;SDS011;10994;45.486;9.190;2023-03-21T14:25:38;23.60;;;15.90;;
21665;SDS011;10994;45.486;9.190;2023-03-21T14:28:17;17.80;;;14.97;;
21665;SDS011;10994;45.486;9.190;2023-03-21T14:30:43;19.30;;;16.37;;
21665;SDS011;10994;45.486;9.190;2023-03-21T14:33:19;18.83;;;16.33;;
21665;SDS011;10994;45.486;9.190;2023-03-21T14:35:47;18.03;;;15.63;;
21665;SDS011;10994;45.486;9.190;2023-03-21T14:38:18;19.57;;;16.03;;
21665;SDS011;10994;45.486;9.190;2023-03-21T14:40:46;17.20;;;14.30;;
21665;SDS011;10994;45.486;9.190;2023-03-21T14:43:12;18.20;;;15.03;;
21665;SDS011;10994;45.486;9.190;2023-03-21T14:45:38;18.33;;;15.20;;
21665;SDS011;10994;45.486;9.190;2023-03-21T14:48:11;20.23;;;15.50;;
21665;SDS011;10994;45.486;9.190;2023-03-21T14:50:48;21.20;;;13.90;;
21665;SDS011;10994;45.486;9.190;2023-03-21T14:53:24;15.93;;;14.27;;
21665;SDS011;10994;45.486;9.190;2023-03-21T14:56:01;18.57;;;15.37;;
21665;SDS011;10994;45.486;9.190;2023-03-21T14:58:27;16.80;;;14.13;;
21665;SDS011;10994;45.486;9.190;2023-03-21T15:00:55;21.30;;;15.23;;
21665;SDS011;10994;45.486;9.190;2023-03-21T15:03:21;18.97;;;13.93;;
21665;SDS011;10994;45.486;9.190;2023-03-21T15:05:51;14.60;;;12.43;;
21665;SDS011;10994;45.486;9.190;2023-03-21T15:08:18;37.33;;;25.30;;
21665;SDS011;10994;45.486;9.190;2023-03-21T15:10:55;14.70;;;13.17;;
21665;SDS011;10994;45.486;9.190;2023-03-21T15:13:22;15.17;;;13.23;;
21665;SDS011;10994;45.486;9.190;2023-03-21T15:15:50;16.70;;;13.50;;
21665;SDS011;10994;45.486;9.190;2023-03-21T15:18:19;17.40;;;12.23;;
21665;SDS011;10994;45.486;9.190;2023-03-21T15:20:48;13.83;;;11.57;;
21665;SDS011;10994;45.486;9.190;2023-03-21T15:23:24;16.77;;;12.07;;
21665;SDS011;10994;45.486;9.190;2023-03-21T15:25:51;13.60;;;10.80;;
21665;SDS011;10994;45.486;9.190;2023-03-21T15:28:17;15.87;;;10.97;;
21665;SDS011;10994;45.486;9.190;2023-03-21T15:30:47;12.47;;;10.53;;
21665;SDS011;10994;45.486;9.190;2023-03-21T15:33:14;15.10;;;10.67;;
21665;SDS011;10994;45.486;9.190;2023-03-21T15:35:59;14.40;;;11.73;;
21665;SDS011;10994;45.486;9.190;2023-03-21T15:38:32;15.20;;;11.87;;
21665;SDS011;10994;45.486;9.190;2023-03-21T15:41:15;13.57;;;10.43;;
21665;SDS011;10994;45.486;9.190;2023-03-21T15:43:41;16.07;;;11.70;;
21665;SDS011;10994;45.486;9.190;2023-03-21T15:46:14;17.53;;;11.90;;